Time;durP1;ratioP1;P1;durP2;ratioP2;P2;SDS_P1;SDS_P2;PMS_P1;PMS_P2;Temp;Humidity;BMP_temperature;BMP_pressure;BME280_temperature;BME280_humidity;BME280_pressure;Samples;Min_cycle;Max_cycle;Signal;HPM_P1;HPM_P2
2021/11/18 00:01:16;;;;;;;16.20;5.90;;;;;;;7.96;93.66;102572.97;4993526;28;20070;-51
2021/11/18 00:03:46;;;;;;;18.33;5.65;;;;;;;7.94;93.96;102572.34;4993878;28;20384;-51
2021/11/18 00:06:15;;;;;;;16.95;5.68;;;;;;;7.95;94.03;102568.56;4992995;28;20046;-50
2021/11/18 00:08:42;;;;;;;19.27;6.55;;;;;;;7.95;93.76;102571.28;4994006;28;20042;-51
2021/11/18 00:11:13;;;;;;;14.90;5.97;;;;;;;7.94;93.24;102572.34;4995462;28;20149;-51
2021/11/18 00:13:44;;;;;;;19.30;5.93;;;;;;;7.94;93.20;102568.75;4980595;28;20046;-48
2021/11/18 00:16:12;;;;;;;14.93;5.85;;;;;;;7.93;93.22;102573.34;4993452;28;20505;-51
2021/11/18 00:18:41;;;;;;;16.77;5.65;;;;;;;7.93;93.10;102575.25;4993069;28;20045;-46
2021/11/18 00:21:16;;;;;;;16.38;6.15;;;;;;;7.91;93.77;102564.59;4994169;28;20074;-51
2021/11/18 00:23:53;;;;;;;17.48;6.43;;;;;;;7.90;93.66;102561.03;4992025;28;20042;-50
2021/11/18 00:26:22;;;;;;;21.10;6.18;;;;;;;7.89;93.02;102569.41;4992992;28;20044;-50
2021/11/18 00:28:49;;;;;;;21.05;6.28;;;;;;;7.88;93.78;102565.84;4991596;28;20484;-54
2021/11/18 00:31:21;;;;;;;16.10;6.50;;;;;;;7.88;93.63;102584.00;4994218;28;20583;-49
2021/11/18 00:33:49;;;;;;;18.73;6.43;;;;;;;7.86;93.56;102589.66;4992928;28;20060;-50
2021/11/18 00:36:17;;;;;;;18.10;6.57;;;;;;;7.86;93.66;102594.22;4991747;28;20202;-51
2021/11/18 00:38:47;;;;;;;19.67;7.25;;;;;;;7.86;93.12;102605.09;4992536;28;20117;-50
2021/11/18 00:41:15;;;;;;;18.48;6.57;;;;;;;7.88;93.34;102603.00;4992032;28;20042;-51
2021/11/18 00:43:44;;;;;;;17.35;6.20;;;;;;;7.88;93.11;102608.44;4993859;28;20482;-49
2021/11/18 00:46:12;;;;;;;17.27;5.97;;;;;;;7.88;92.96;102614.69;4993268;28;20485;-52
2021/11/18 00:48:42;;;;;;;16.38;5.80;;;;;;;7.90;93.05;102617.22;4990664;28;20104;-49
2021/11/18 00:51:19;;;;;;;17.35;5.75;;;;;;;7.90;93.28;102611.78;4991604;28;20146;-51
2021/11/18 00:53:53;;;;;;;16.73;6.53;;;;;;;7.90;93.13;102611.78;4993731;28;20046;-50
2021/11/18 00:56:22;;;;;;;17.80;6.60;;;;;;;7.90;92.74;102607.19;4991534;28;20420;-51
2021/11/18 00:58:52;;;;;;;22.63;7.18;;;;;;;7.90;92.84;102617.22;4991481;28;20058;-50
2021/11/18 01:01:21;;;;;;;16.50;6.35;;;;;;;7.88;93.05;102616.56;4991227;28;20137;-51
2021/11/18 01:03:49;;;;;;;17.35;6.05;;;;;;;7.87;93.39;102615.75;4993998;28;20042;-50
2021/11/18 01:06:17;;;;;;;17.52;6.30;;;;;;;7.88;93.33;102613.84;4991270;28;20034;-50
2021/11/18 01:08:44;;;;;;;21.23;6.75;;;;;;;7.91;93.63;102613.44;4992853;28;20045;-46
2021/11/18 01:11:19;;;;;;;17.20;5.93;;;;;;;7.91;93.45;102610.72;4990871;28;20398;-50
2021/11/18 01:13:48;;;;;;;16.70;6.22;;;;;;;7.93;93.08;102600.50;4992510;28;20042;-50
2021/11/18 01:16:18;;;;;;;15.18;6.05;;;;;;;7.93;92.52;102594.25;4992886;28;20042;-50
2021/11/18 01:18:46;;;;;;;17.60;6.22;;;;;;;7.92;92.44;102600.72;4992582;28;20137;-51
2021/11/18 01:21:14;;;;;;;17.95;6.68;;;;;;;7.89;92.38;102601.97;4992291;28;20045;-50
2021/11/18 01:23:44;;;;;;;17.58;5.72;;;;;;;7.88;92.82;102603.00;4991326;28;20038;-50
2021/11/18 01:26:14;;;;;;;15.57;6.07;;;;;;;7.87;92.76;102591.31;4992420;28;20061;-52
2021/11/18 01:28:42;;;;;;;17.25;5.93;;;;;;;7.85;92.95;102598.00;4991031;28;20126;-51
2021/11/18 01:31:10;;;;;;;13.50;5.65;;;;;;;7.84;93.01;102602.59;4992049;28;20030;-50
2021/11/18 01:33:40;;;;;;;18.05;6.45;;;;;;;7.82;92.73;102609.28;4991090;28;20042;-48
2021/11/18 01:36:08;;;;;;;18.65;6.45;;;;;;;7.81;92.57;102613.00;4992232;28;20498;-50
2021/11/18 01:38:44;;;;;;;17.00;5.90;;;;;;;7.78;92.73;102613.44;4991368;28;20416;-48
2021/11/18 01:41:25;;;;;;;15.48;5.68;;;;;;;7.75;93.02;102603.00;4990919;28;20039;-50
2021/11/18 01:43:56;;;;;;;14.60;6.18;;;;;;;7.74;92.83;102607.56;4991201;28;20038;-50
2021/11/18 01:46:32;;;;;;;19.00;6.72;;;;;;;7.73;92.21;102608.63;4993933;28;20042;-50
2021/11/18 01:49:07;;;;;;;16.13;6.68;;;;;;;7.72;92.39;102619.66;4974829;28;20085;-51
2021/11/18 01:51:39;;;;;;;18.50;6.93;;;;;;;7.71;92.20;102620.72;4992344;28;20078;-47
2021/11/18 01:54:07;;;;;;;15.43;6.60;;;;;;;7.69;93.15;102627.16;4991035;28;20037;-50
2021/11/18 01:56:35;;;;;;;19.88;6.88;;;;;;;7.69;92.44;102627.16;4991513;28;20038;-46
2021/11/18 01:59:16;;;;;;;18.55;6.53;;;;;;;7.70;92.63;102628.03;4993076;28;20053;-47
2021/11/18 02:01:51;;;;;;;18.35;7.18;;;;;;;7.71;92.80;102631.56;4979172;28;20042;-50
2021/11/18 02:04:52;;;;;;;19.20;7.70;;;;;;;7.73;92.67;102641.16;4995976;28;20108;-51
2021/11/18 02:07:22;;;;;;;17.10;7.22;;;;;;;7.74;92.51;102650.13;4995302;28;20164;-52
2021/11/18 02:09:51;;;;;;;17.98;7.25;;;;;;;7.72;92.83;102630.50;4978220;28;20050;-51
2021/11/18 02:12:27;;;;;;;17.55;7.00;;;;;;;7.72;93.24;102631.38;4994551;28;20142;-51
2021/11/18 02:14:56;;;;;;;17.88;7.13;;;;;;;7.73;92.53;102633.03;4994335;28;20042;-50
2021/11/18 02:17:25;;;;;;;21.13;8.30;;;;;;;7.74;93.43;102634.69;4994203;28;20117;-50
2021/11/18 02:19:59;;;;;;;19.67;7.28;;;;;;;7.75;92.61;102630.13;4995606;28;20135;-49
2021/11/18 02:22:28;;;;;;;17.30;7.25;;;;;;;7.76;93.00;102620.94;4994502;28;20122;-51
2021/11/18 02:25:04;;;;;;;17.33;6.50;;;;;;;7.77;92.44;102625.31;4977893;28;20055;-48
2021/11/18 02:27:32;;;;;;;16.73;6.55;;;;;;;7.76;92.24;102629.06;5010556;28;20523;-51
2021/11/18 02:30:05;;;;;;;16.25;6.72;;;;;;;7.74;92.95;102631.16;4994694;28;20058;-51
2021/11/18 02:32:37;;;;;;;19.77;7.47;;;;;;;7.74;93.15;102631.97;4994022;28;20796;-51
2021/11/18 02:35:11;;;;;;;17.77;6.75;;;;;;;7.73;92.27;102637.63;4993821;28;20050;-50
2021/11/18 02:37:39;;;;;;;21.35;7.75;;;;;;;7.72;93.35;102636.78;4994499;28;20042;-50
2021/11/18 02:40:09;;;;;;;20.13;7.75;;;;;;;7.71;92.81;102645.13;4995238;28;20133;-46
2021/11/18 02:42:38;;;;;;;16.63;7.00;;;;;;;7.70;92.49;102638.88;4994015;28;20417;-48
2021/11/18 02:45:16;;;;;;;20.15;7.22;;;;;;;7.68;93.14;102636.34;4993659;28;20050;-52
2021/11/18 02:47:44;;;;;;;19.17;7.07;;;;;;;7.68;93.44;102636.34;4994176;28;20382;-51
2021/11/18 02:50:19;;;;;;;18.35;7.70;;;;;;;7.69;92.53;102631.75;4994621;28;20056;-52
2021/11/18 02:52:49;;;;;;;17.80;7.17;;;;;;;7.68;93.16;102630.94;5007791;28;20054;-52
2021/11/18 02:55:24;;;;;;;16.67;7.30;;;;;;;7.69;92.32;102637.19;4993873;28;20437;-50
2021/11/18 02:57:51;;;;;;;17.25;6.78;;;;;;;7.68;93.17;102630.09;4980203;28;20097;-50
2021/11/18 03:00:23;;;;;;;20.20;7.22;;;;;;;7.67;92.32;102634.69;4995609;28;20486;-49
2021/11/18 03:02:53;;;;;;;20.15;7.63;;;;;;;7.66;93.06;102643.84;4993769;28;20046;-49
2021/11/18 03:05:22;;;;;;;16.48;7.05;;;;;;;7.66;93.13;102641.16;4994365;28;20038;-51
2021/11/18 03:07:51;;;;;;;19.85;7.10;;;;;;;7.66;92.50;102638.44;4992517;28;20038;-50
2021/11/18 03:10:21;;;;;;;18.83;7.45;;;;;;;7.66;92.92;102641.16;4994394;28;20046;-46
2021/11/18 03:12:49;;;;;;;18.75;7.35;;;;;;;7.64;92.37;102637.78;4993588;28;20050;-51
2021/11/18 03:15:18;;;;;;;22.83;8.48;;;;;;;7.64;93.06;102636.97;4993356;28;20058;-51
2021/11/18 03:17:47;;;;;;;22.58;8.18;;;;;;;7.62;92.66;102639.88;4993212;28;20476;-54
2021/11/18 03:20:24;;;;;;;22.90;7.82;;;;;;;7.63;93.06;102633.41;4994420;28;20046;-51
2021/11/18 03:22:52;;;;;;;20.92;7.38;;;;;;;7.62;92.98;102637.16;4993098;28;20053;-50
2021/11/18 03:25:24;;;;;;;24.00;8.30;;;;;;;7.62;92.88;102639.03;4993373;28;20042;-50
2021/11/18 03:27:56;;;;;;;22.77;7.80;;;;;;;7.61;92.78;102635.50;4993064;28;20050;-50
2021/11/18 03:30:27;;;;;;;20.38;8.40;;;;;;;7.61;92.67;102632.78;4995488;28;20061;-51
2021/11/18 03:32:57;;;;;;;23.25;8.70;;;;;;;7.62;93.51;102637.16;4993471;28;20042;-51
2021/11/18 03:35:27;;;;;;;18.77;7.55;;;;;;;7.62;93.53;102642.56;4993212;28;20401;-50
2021/11/18 03:37:56;;;;;;;19.73;7.45;;;;;;;7.62;92.97;102650.72;4992866;28;20051;-50
2021/11/18 03:40:25;;;;;;;19.58;7.93;;;;;;;7.63;93.90;102655.13;4994432;28;20038;-53
2021/11/18 03:42:53;;;;;;;20.13;8.82;;;;;;;7.64;93.42;102655.94;4994301;28;20046;-50
2021/11/18 03:45:26;;;;;;;20.08;7.47;;;;;;;7.65;93.48;102642.19;4992737;28;20042;-51
2021/11/18 03:47:53;;;;;;;22.17;8.20;;;;;;;7.67;93.84;102645.53;4992864;28;20258;-51
2021/11/18 03:50:22;;;;;;;24.55;9.13;;;;;;;7.67;93.44;102650.13;4992708;28;20121;-51
2021/11/18 03:52:49;;;;;;;20.02;8.30;;;;;;;7.66;93.63;102649.28;4995225;28;20141;-51
2021/11/18 03:55:18;;;;;;;22.95;8.45;;;;;;;7.67;94.10;102658.25;4992799;28;20046;-50
2021/11/18 03:57:49;;;;;;;21.73;9.18;;;;;;;7.67;93.69;102661.81;4960778;28;20524;-50
2021/11/18 04:00:24;;;;;;;22.35;9.93;;;;;;;7.67;93.90;102650.97;4992651;28;20085;-47
2021/11/18 04:02:53;;;;;;;22.42;9.50;;;;;;;7.69;94.33;102648.88;4984876;28;20097;-47
2021/11/18 04:05:39;;;;;;;23.50;8.68;;;;;;;7.69;94.11;102665.16;4992657;28;20053;-50
2021/11/18 04:08:08;;;;;;;24.25;8.73;;;;;;;7.71;94.02;102647.84;4992450;28;20117;-51
2021/11/18 04:10:39;;;;;;;24.08;9.38;;;;;;;7.72;94.24;102668.50;4992447;28;20050;-49
2021/11/18 04:13:39;;;;;;;23.95;8.95;;;;;;;7.71;94.43;102672.25;4994245;28;20061;-51
2021/11/18 04:16:08;;;;;;;22.10;8.65;;;;;;;7.71;94.78;102654.09;5010163;28;20277;-52
2021/11/18 04:18:36;;;;;;;26.02;8.38;;;;;;;7.72;94.84;102655.78;4992333;28;20047;-50
2021/11/18 04:21:04;;;;;;;18.20;7.82;;;;;;;7.74;94.50;102650.13;4992131;28;20077;-51
2021/11/18 04:23:33;;;;;;;21.48;9.18;;;;;;;7.72;94.20;102646.78;4976672;28;20038;-54
2021/11/18 04:26:02;;;;;;;27.42;9.77;;;;;;;7.71;93.93;102645.97;4992699;28;20407;-49
2021/11/18 04:28:32;;;;;;;18.88;7.72;;;;;;;7.72;94.38;102652.22;4991903;28;20456;-53
2021/11/18 04:31:18;;;;;;;23.63;8.75;;;;;;;7.71;94.52;102651.38;4997808;28;20081;-50
2021/11/18 04:33:47;;;;;;;20.92;8.15;;;;;;;7.71;94.40;102650.56;4988318;28;20042;-51
2021/11/18 04:36:20;;;;;;;20.95;8.68;;;;;;;7.71;94.75;102662.25;4992101;28;20062;-50
2021/11/18 04:38:52;;;;;;;19.58;7.75;;;;;;;7.72;94.06;102655.78;4993569;28;20055;-50
2021/11/18 04:41:22;;;;;;;21.73;8.40;;;;;;;7.71;94.17;102658.69;4991572;28;20467;-49
2021/11/18 04:43:55;;;;;;;21.27;8.45;;;;;;;7.69;95.09;102654.28;4993230;28;20042;-51
2021/11/18 04:46:24;;;;;;;22.30;9.30;;;;;;;7.69;94.51;102657.00;4991632;28;20050;-49
2021/11/18 04:48:54;;;;;;;23.30;9.07;;;;;;;7.68;94.64;102657.22;4991084;28;20050;-54
2021/11/18 04:51:23;;;;;;;21.60;9.40;;;;;;;7.68;95.42;102663.47;4992121;28;20046;-53
2021/11/18 04:53:51;;;;;;;18.58;8.18;;;;;;;7.68;95.28;102655.34;4991645;28;20039;-51
2021/11/18 04:56:22;;;;;;;20.20;8.80;;;;;;;7.69;95.37;102657.00;4991328;28;20528;-47
2021/11/18 04:58:52;;;;;;;19.95;8.75;;;;;;;7.69;95.35;102657.00;4991642;28;20084;-50
2021/11/18 05:01:21;;;;;;;25.65;9.38;;;;;;;7.68;95.28;102655.34;4991481;28;20050;-51
2021/11/18 05:03:51;;;;;;;21.38;8.60;;;;;;;7.68;94.68;102651.81;4991752;28;20200;-46
2021/11/18 05:06:21;;;;;;;22.10;9.05;;;;;;;7.70;95.20;102655.16;4992568;28;20054;-51
2021/11/18 05:08:49;;;;;;;25.70;9.55;;;;;;;7.68;94.72;102647.22;4991274;28;20054;-50
2021/11/18 05:11:17;;;;;;;20.15;8.27;;;;;;;7.69;94.64;102650.75;4992316;28;20121;-51
2021/11/18 05:13:46;;;;;;;30.40;10.50;;;;;;;7.67;95.16;102650.97;4993426;28;20046;-50
2021/11/18 05:16:16;;;;;;;22.00;8.55;;;;;;;7.67;94.54;102661.81;4991626;28;20046;-50
2021/11/18 05:18:45;;;;;;;30.15;10.98;;;;;;;7.66;94.52;102660.13;4991399;28;20461;-50
2021/11/18 05:21:16;;;;;;;23.52;10.13;;;;;;;7.66;95.22;102659.31;4991324;28;20046;-51
2021/11/18 05:23:45;;;;;;;22.25;9.23;;;;;;;7.64;94.33;102656.78;4992388;28;20038;-50
2021/11/18 05:26:16;;;;;;;23.98;9.77;;;;;;;7.63;94.41;102652.41;4990657;28;20042;-51
2021/11/18 05:28:44;;;;;;;31.98;10.32;;;;;;;7.62;94.96;102644.47;4992481;28;20051;-51
2021/11/18 05:31:14;;;;;;;29.58;10.98;;;;;;;7.57;95.18;102642.34;4991107;28;20046;-53
2021/11/18 05:33:54;;;;;;;29.00;11.55;;;;;;;7.51;94.53;102639.66;5003385;28;20042;-50
2021/11/18 05:36:31;;;;;;;26.13;10.50;;;;;;;7.47;95.41;102650.03;5014643;28;20038;-49
2021/11/18 05:38:59;;;;;;;23.05;9.50;;;;;;;7.45;95.52;102646.69;4994944;28;20062;-50
2021/11/18 05:41:26;;;;;;;22.00;8.18;;;;;;;7.49;95.43;102647.97;4993967;28;20142;-50
2021/11/18 05:44:01;;;;;;;25.58;10.30;;;;;;;7.50;94.62;102649.63;4996288;28;20567;-50
2021/11/18 05:46:31;;;;;;;28.50;10.00;;;;;;;7.52;95.19;102647.56;4995144;28;20054;-48
2021/11/18 05:49:01;;;;;;;21.75;9.48;;;;;;;7.54;95.18;102645.47;4994822;28;20089;-51
2021/11/18 05:51:28;;;;;;;22.90;10.00;;;;;;;7.54;94.70;102650.09;4991031;28;20039;-52
2021/11/18 05:53:57;;;;;;;24.40;9.00;;;;;;;7.54;94.53;102645.47;4995319;28;20408;-52
2021/11/18 05:56:25;;;;;;;19.27;8.40;;;;;;;7.56;94.42;102654.25;4992522;28;20533;-52
2021/11/18 05:58:53;;;;;;;19.08;8.02;;;;;;;7.61;96.28;102657.19;5011237;28;20485;-51
2021/11/18 06:01:26;;;;;;;18.13;7.77;;;;;;;7.62;95.28;102658.84;4297676;28;10000994;-51
2021/11/18 06:03:58;;;;;;;18.20;7.85;;;;;;;7.65;96.27;102653.03;4979380;28;20055;-52
2021/11/18 06:06:49;;;;;;;27.48;10.98;;;;;;;7.65;95.00;102657.66;4965763;28;20133;-51
2021/11/18 06:09:16;;;;;;;24.67;10.55;;;;;;;7.60;95.12;102655.53;4954706;28;20577;-51
2021/11/18 06:11:45;;;;;;;24.70;9.70;;;;;;;7.60;95.04;102665.53;4954566;28;20051;-48
2021/11/18 06:14:17;;;;;;;19.65;8.10;;;;;;;7.63;96.13;102657.84;4970010;28;20142;-49
2021/11/18 06:16:47;;;;;;;24.40;8.68;;;;;;;7.63;95.42;102646.16;4955172;28;20129;-52
2021/11/18 06:19:15;;;;;;;19.27;8.02;;;;;;;7.64;96.25;102645.09;4954622;28;20062;-53
2021/11/18 06:21:47;;;;;;;27.75;10.05;;;;;;;7.61;94.84;102657.19;4971021;28;20109;-48
2021/11/18 06:24:17;;;;;;;20.35;8.13;;;;;;;7.64;96.69;102661.38;4950515;28;20094;-52
2021/11/18 06:26:50;;;;;;;20.00;8.68;;;;;;;7.64;96.39;102648.66;4953410;28;20042;-48
2021/11/18 06:29:29;;;;;;;17.40;7.35;;;;;;;7.66;96.60;102646.56;4956625;28;20129;-49
2021/11/18 06:32:00;;;;;;;25.40;9.10;;;;;;;7.66;95.99;102646.56;4957088;28;20055;-48
2021/11/18 06:34:28;;;;;;;18.60;8.43;;;;;;;7.66;95.88;102660.13;4953783;28;20046;-48
2021/11/18 06:36:56;;;;;;;27.42;10.90;;;;;;;7.64;95.27;102667.63;4949379;28;20070;-47
2021/11/18 06:39:32;;;;;;;21.13;8.60;;;;;;;7.63;95.77;102676.81;4960949;28;20563;-48
2021/11/18 06:41:59;;;;;;;21.80;8.15;;;;;;;7.64;96.57;102672.22;4956155;28;20046;-47
2021/11/18 06:44:27;;;;;;;22.35;8.68;;;;;;;7.70;97.49;102682.28;4986258;28;20461;-50
2021/11/18 06:46:56;;;;;;;21.15;8.52;;;;;;;7.75;97.44;102678.97;4974209;28;20053;-47
2021/11/18 06:49:24;;;;;;;27.33;11.07;;;;;;;7.67;95.70;102667.25;4976862;28;20480;-51
2021/11/18 06:51:52;;;;;;;17.92;7.57;;;;;;;7.71;98.06;102672.25;4993267;28;20130;-51
2021/11/18 06:54:20;;;;;;;21.08;7.97;;;;;;;7.68;97.41;102679.75;5000961;28;20618;-47
2021/11/18 06:56:48;;;;;;;24.15;9.55;;;;;;;7.65;96.56;102684.78;4992712;28;20093;-48
2021/11/18 06:59:17;;;;;;;26.23;11.13;;;;;;;7.61;95.96;102681.59;4988663;28;20054;-51
2021/11/18 07:01:46;;;;;;;22.30;8.93;;;;;;;7.65;97.27;102685.59;4999873;28;20048;-50
2021/11/18 07:04:15;;;;;;;20.92;8.30;;;;;;;7.72;97.75;102692.91;4991035;28;20104;-47
2021/11/18 07:06:43;;;;;;;24.70;10.00;;;;;;;7.67;96.78;102688.97;5001309;28;20382;-48
2021/11/18 07:09:18;;;;;;;20.52;8.00;;;;;;;7.69;97.99;102689.56;5020841;28;20043;-48
2021/11/18 07:12:07;;;;;;;19.92;8.07;;;;;;;7.70;97.97;102679.56;4998987;28;20068;-47
2021/11/18 07:14:36;;;;;;;20.70;8.50;;;;;;;7.70;97.19;102685.00;4995815;28;20054;-51
2021/11/18 07:17:04;;;;;;;18.65;7.32;;;;;;;7.73;99.02;102687.28;5004513;28;20121;-51
2021/11/18 07:19:33;;;;;;;21.98;9.15;;;;;;;7.71;97.85;102686.66;4993391;28;20042;-49
2021/11/18 07:22:03;;;;;;;17.38;7.35;;;;;;;7.73;98.56;102694.59;4991762;28;20112;-47
2021/11/18 07:24:51;;;;;;;21.60;8.15;;;;;;;7.73;98.39;102700.03;4995699;28;20501;-49
2021/11/18 07:27:20;;;;;;;24.35;9.80;;;;;;;7.69;97.03;102703.13;5001963;28;20073;-51
2021/11/18 07:29:47;;;;;;;24.08;9.25;;;;;;;7.68;97.97;102706.91;4995027;28;20141;-50
2021/11/18 07:32:16;;;;;;;23.42;9.30;;;;;;;7.76;98.61;102702.34;5002809;28;20038;-51
2021/11/18 07:34:44;;;;;;;23.80;9.13;;;;;;;7.77;99.32;102707.56;4996539;28;20045;-53
2021/11/18 07:37:22;;;;;;;27.30;9.93;;;;;;;7.69;97.76;102705.84;4995828;28;20104;-51
2021/11/18 07:39:50;;;;;;;22.60;9.15;;;;;;;7.67;97.18;102716.09;5006007;28;20053;-51
2021/11/18 07:42:18;;;;;;;21.00;9.23;;;;;;;7.64;97.51;102724.59;5001162;28;20070;-51
2021/11/18 07:45:05;;;;;;;28.65;10.95;;;;;;;7.64;97.04;102726.50;4996548;28;20501;-51
2021/11/18 07:47:45;;;;;;;22.30;9.50;;;;;;;7.62;96.78;102734.81;4995562;28;20097;-52
2021/11/18 07:50:17;;;;;;;29.15;11.32;;;;;;;7.63;96.18;102736.50;4997981;28;20073;-52
2021/11/18 07:52:45;;;;;;;19.15;9.18;;;;;;;7.63;96.38;102725.66;4997997;28;20054;-53
2021/11/18 07:55:14;;;;;;;22.50;8.88;;;;;;;7.64;96.41;102738.16;4999454;28;20493;-52
2021/11/18 07:57:42;;;;;;;28.27;10.70;;;;;;;7.67;97.62;102737.78;5002155;28;20089;-51
2021/11/18 08:00:12;;;;;;;25.83;10.23;;;;;;;7.66;96.53;102746.94;4993083;28;20043;-51
2021/11/18 08:02:46;;;;;;;24.00;9.60;;;;;;;7.65;96.83;102756.13;4997645;28;20078;-54
2021/11/18 08:05:35;;;;;;;30.05;10.07;;;;;;;7.71;96.54;102753.66;5001127;28;20166;-51
2021/11/18 08:08:02;;;;;;;23.92;10.18;;;;;;;7.74;96.60;102753.25;4993898;28;20078;-52
2021/11/18 08:10:30;;;;;;;24.70;10.00;;;;;;;7.72;96.27;102749.91;4995567;28;20051;-53
2021/11/18 08:13:00;;;;;;;28.77;9.82;;;;;;;7.75;96.67;102754.94;4993498;28;20104;-53
2021/11/18 08:15:28;;;;;;;23.33;8.70;;;;;;;7.77;97.95;102739.28;4998733;28;20089;-48
2021/11/18 08:17:56;;;;;;;21.42;8.80;;;;;;;7.77;97.50;102739.28;5000178;28;20404;-51
2021/11/18 08:20:30;;;;;;;22.25;8.30;;;;;;;7.86;99.52;102735.34;4987169;28;20057;-52
2021/11/18 08:22:58;;;;;;;25.38;9.27;;;;;;;7.87;98.35;102743.28;5005238;28;20042;-46
2021/11/18 08:25:32;;;;;;;26.13;9.02;;;;;;;7.90;100.00;102751.03;4994165;28;20540;-46
2021/11/18 08:28:00;;;;;;;19.52;8.40;;;;;;;7.83;97.68;102747.44;4992670;28;20528;-45
2021/11/18 08:30:32;;;;;;;22.52;8.02;;;;;;;7.91;100.00;102743.72;5010655;28;20038;-47
2021/11/18 08:33:02;;;;;;;20.38;7.90;;;;;;;7.91;99.00;102738.28;4991847;28;20101;-45
2021/11/18 08:35:33;;;;;;;26.25;9.43;;;;;;;7.90;99.00;102728.47;4999151;28;20069;-47
2021/11/18 08:38:05;;;;;;;19.95;7.85;;;;;;;7.92;99.31;102729.13;4994397;28;20046;-45
2021/11/18 08:40:36;;;;;;;21.75;8.40;;;;;;;7.87;98.53;102731.63;4998231;28;20134;-47
2021/11/18 08:43:06;;;;;;;22.40;7.60;;;;;;;7.93;100.00;102730.78;4999043;28;20086;-45
2021/11/18 08:45:35;;;;;;;25.00;8.23;;;;;;;7.96;99.93;102724.97;4998541;28;20044;-47
2021/11/18 08:48:08;;;;;;;21.67;7.97;;;;;;;7.95;100.00;102722.44;4990103;28;20065;-44
2021/11/18 08:50:38;;;;;;;24.38;8.13;;;;;;;7.98;100.00;102731.00;4992955;28;20065;-46
2021/11/18 08:53:10;;;;;;;23.65;8.00;;;;;;;7.99;100.00;102729.97;5003165;28;20050;-47
2021/11/18 08:55:41;;;;;;;26.27;8.73;;;;;;;8.02;100.00;102726.84;5000425;28;20064;-47
2021/11/18 08:58:13;;;;;;;23.17;8.32;;;;;;;7.99;100.00;102735.41;4993737;28;20050;-45
2021/11/18 09:01:04;;;;;;;22.63;7.93;;;;;;;8.06;100.00;102732.72;5002288;28;20049;-47
2021/11/18 09:03:39;;;;;;;23.27;8.70;;;;;;;8.04;100.00;102738.34;4993920;28;20792;-47
2021/11/18 09:06:12;;;;;;;21.80;8.07;;;;;;;8.07;100.00;102732.50;4999680;28;20050;-46
2021/11/18 09:08:43;;;;;;;16.52;7.07;;;;;;;8.11;100.00;102732.94;5000488;28;20054;-47
2021/11/18 09:11:13;;;;;;;21.27;7.32;;;;;;;8.06;100.00;102736.28;4991248;28;20079;-48
2021/11/18 09:13:47;;;;;;;18.83;8.23;;;;;;;8.20;100.00;102736.28;4990490;28;20038;-47
2021/11/18 09:16:18;;;;;;;19.65;7.15;;;;;;;8.16;100.00;102724.19;4958027;28;20042;-45
2021/11/18 09:19:02;;;;;;;23.30;8.07;;;;;;;8.14;100.00;102737.13;4977487;28;20042;-47
2021/11/18 09:21:31;;;;;;;22.27;8.00;;;;;;;8.08;100.00;102738.75;4990752;28;20501;-47
2021/11/18 09:24:13;;;;;;;25.98;8.07;;;;;;;8.03;100.00;102741.25;4990684;28;20035;-46
2021/11/18 09:27:03;;;;;;;26.50;9.18;;;;;;;7.94;99.05;102740.63;4990293;28;20050;-46
2021/11/18 09:29:33;;;;;;;27.17;9.02;;;;;;;7.90;98.23;102747.47;4991389;28;20101;-48
2021/11/18 09:32:11;;;;;;;27.63;9.25;;;;;;;7.90;98.06;102750.19;4994023;28;20066;-47
2021/11/18 09:34:43;;;;;;;24.70;8.60;;;;;;;7.89;97.80;102753.97;4994568;28;20078;-46
2021/11/18 09:37:12;;;;;;;26.08;8.40;;;;;;;7.94;97.85;102751.47;4992251;28;20056;-47
2021/11/18 09:39:41;;;;;;;29.95;8.63;;;;;;;7.98;98.17;102770.88;4991641;28;20489;-48
2021/11/18 09:42:22;;;;;;;24.20;8.60;;;;;;;8.06;98.19;102779.72;4990659;28;20046;-44
2021/11/18 09:44:51;;;;;;;21.80;6.85;;;;;;;8.15;98.65;102782.22;4990445;28;20121;-46
2021/11/18 09:48:03;;;;;;;24.23;8.85;;;;;;;8.35;100.00;102775.00;4996697;28;20044;-48
2021/11/18 09:50:45;;;;;;;23.70;7.80;;;;;;;8.66;100.00;102784.47;4964840;28;20054;-47
2021/11/18 09:53:19;;;;;;;;;;;;;;;8.73;100.00;102788.91;4992668;28;20108;-43
2021/11/18 09:56:09;;;;;;;22.55;7.18;;;;;;;8.65;100.00;102783.66;4995314;28;19921;-48
2021/11/18 09:58:38;;;;;;;26.35;8.35;;;;;;;8.63;100.00;102795.75;4978412;28;20109;-47
2021/11/18 10:01:41;;;;;;;22.85;7.47;;;;;;;8.57;100.00;102810.19;4994006;28;20433;-47
2021/11/18 10:04:41;;;;;;;22.30;7.22;;;;;;;8.50;98.95;102811.00;4980152;28;20556;-46
2021/11/18 10:07:24;;;;;;;25.83;8.48;;;;;;;8.41;97.55;102809.50;4986469;28;20046;-48
2021/11/18 10:10:26;;;;;;;21.85;6.60;;;;;;;8.43;97.75;102804.72;4975560;28;20050;-47
2021/11/18 10:13:13;;;;;;;28.15;8.43;;;;;;;8.40;97.70;102796.16;4996874;28;20566;-46
2021/11/18 10:15:47;;;;;;;20.48;7.93;;;;;;;8.43;98.02;102785.69;4975331;28;20125;-47
2021/11/18 10:18:25;;;;;;;16.88;6.10;;;;;;;8.68;100.00;102777.81;4978193;28;20046;-46
2021/11/18 10:21:03;;;;;;;21.48;6.88;;;;;;;8.68;99.01;102777.81;4993789;28;20057;-46
2021/11/18 10:23:31;;;;;;;18.90;6.93;;;;;;;8.68;98.89;102771.53;4995638;28;20088;-46
2021/11/18 10:26:10;;;;;;;21.42;7.30;;;;;;;8.72;98.78;102775.50;4993595;28;20051;-45
2021/11/18 10:28:46;;;;;;;22.77;7.53;;;;;;;8.69;96.61;102773.22;4994672;28;20445;-48
2021/11/18 10:31:40;;;;;;;28.10;9.10;;;;;;;8.70;96.47;102781.13;5001030;28;20049;-48
2021/11/18 10:34:15;;;;;;;21.40;7.47;;;;;;;8.79;97.19;102772.81;4995146;28;20042;-47
2021/11/18 10:37:09;;;;;;;22.08;6.75;;;;;;;8.77;97.49;102769.44;4994985;28;20053;-47
2021/11/18 10:39:46;;;;;;;21.05;7.45;;;;;;;8.81;97.28;102763.41;4994641;28;20109;-49
2021/11/18 10:42:33;;;;;;;25.20;8.30;;;;;;;8.92;97.21;102770.06;4993777;28;20042;-48
2021/11/18 10:45:26;;;;;;;18.27;6.40;;;;;;;8.86;97.35;102760.88;4992513;28;20524;-47
2021/11/18 10:48:18;;;;;;;23.42;8.65;;;;;;;8.83;95.79;102758.59;4988287;28;20810;-48
2021/11/18 10:50:54;;;;;;;23.80;7.63;;;;;;;8.89;97.18;102763.16;4993725;28;20054;-48
2021/11/18 10:53:27;;;;;;;24.63;8.60;;;;;;;8.85;95.27;102759.22;4994823;28;20042;-47
2021/11/18 10:56:10;;;;;;;20.83;7.07;;;;;;;8.80;93.11;102767.13;4994013;28;20070;-48
2021/11/18 10:58:41;;;;;;;20.85;8.27;;;;;;;8.73;92.79;102760.84;4994142;28;20140;-44
2021/11/18 11:01:27;;;;;;;23.13;7.60;;;;;;;8.72;92.89;102751.88;4994745;28;20489;-47
2021/11/18 11:03:57;;;;;;;20.45;7.70;;;;;;;8.72;92.17;102749.16;4995374;28;20611;-47
2021/11/18 11:06:47;;;;;;;28.00;9.48;;;;;;;8.77;92.23;102747.72;4993446;28;20495;-46
2021/11/18 11:09:16;;;;;;;22.00;7.97;;;;;;;8.86;92.56;102758.16;4974391;28;20497;-49
2021/11/18 11:12:01;;;;;;;27.08;8.38;;;;;;;8.95;92.97;102743.31;4994174;28;20038;-46
2021/11/18 11:14:56;;;;;;;26.65;8.80;;;;;;;8.89;91.26;102738.72;4984542;28;20046;-47
2021/11/18 11:17:43;;;;;;;21.57;7.40;;;;;;;8.88;91.48;102736.22;5003405;28;20409;-49
2021/11/18 11:20:19;;;;;;;33.15;10.20;;;;;;;8.89;91.01;102730.56;5001044;28;20070;-46
2021/11/18 11:23:04;;;;;;;28.15;9.25;;;;;;;8.92;90.38;102738.31;4994097;28;20520;-48
2021/11/18 11:25:38;;;;;;;24.95;8.07;;;;;;;8.96;89.49;102736.81;4993509;28;20046;-47
2021/11/18 11:28:30;;;;;;;23.40;8.55;;;;;;;8.95;89.59;102740.59;4993355;28;20046;-46
2021/11/18 11:31:22;;;;;;;126.65;83.25;;;;;;;9.15;97.52;102734.31;4994322;28;20038;-47
2021/11/18 11:34:22;;;;;;;28.67;12.02;;;;;;;9.12;90.51;102735.56;4984216;28;20137;-49
2021/11/18 11:37:26;;;;;;;38.30;22.98;;;;;;;9.22;93.06;102737.84;4988120;28;20051;-49
2021/11/18 11:40:19;;;;;;;66.70;39.83;;;;;;;9.39;92.05;102725.47;4907743;29;20048;-50
2021/11/18 11:43:14;;;;;;;135.48;88.22;;;;;;;9.42;92.28;102723.38;4928048;29;20044;-49
2021/11/18 11:46:02;;;;;;;61.80;36.55;;;;;;;9.56;94.44;102723.09;4922812;29;20047;-47
2021/11/18 11:48:58;;;;;;;52.05;28.33;;;;;;;9.54;91.14;102721.66;4933446;29;20047;-49
2021/11/18 11:51:46;;;;;;;28.52;10.48;;;;;;;9.41;88.11;102722.53;4933667;29;20051;-47
2021/11/18 11:54:22;;;;;;;24.65;8.60;;;;;;;9.31;88.25;102722.97;4930324;29;20052;-47